^^
Saratoga-Weather Station Historical Data
Daily Summary for June 28, 2022 Units:  English    Metric   Both
Daily Weekly Monthly Yearly Custom
  High: Low: Average:
Temperature: 81.7 °F 55 °F 68.4 °F
Dew Point: 59.9 °F 52 °F 55.6 °F
Humidity: 96% 38% 68%
Wind Speed: 6.9mph 0mph 1.2mph
Wind Gust: 11mph - -
Wind- - ESE
Pressure: 30.2 in 30 in -
Precipitation: 0 in    
Historical Graphs
 
 
Tabular Data for June 28, 2022
Time Temperature Dew Point Pressure Wind Wind Speed Wind Gust Humidity Rainfall Rate (Hourly) solar
00:00 61.3 °F 57.4 °F 30.1 in Calm   1 mph 87% 0 in 0 W/m2
00:05 61.3 °F 57.2 °F 30.1 in Calm     86% 0 in 0 W/m2
00:10 61.2 °F 57 °F 30.1 in Calm     86% 0 in 0 W/m2
00:15 61 °F 56.8 °F 30.1 in Calm     86% 0 in 0 W/m2
00:20 60.8 °F 56.7 °F 30.1 in Calm   1 mph 86% 0 in 0 W/m2
00:25 60.4 °F 56.3 °F 30.1 in SSW 0.9 mph 1 mph 86% 0 in 0 W/m2
00:30 60.3 °F 56.3 °F 30.1 in Calm     87% 0 in 0 W/m2
00:35 60.1 °F 56.5 °F 30.1 in Calm   2 mph 88% 0 in 0 W/m2
00:40 59.7 °F 56.1 °F 30.1 in Calm   1 mph 88% 0 in 0 W/m2
00:45 59.7 °F 56.1 °F 30.1 in Calm     88% 0 in 0 W/m2
00:50 59.9 °F 56.7 °F 30.1 in Calm   1 mph 89% 0 in 0 W/m2
00:55 60.1 °F 56.8 °F 30.1 in Calm     89% 0 in 0 W/m2
01:00 60.1 °F 56.8 °F 30.1 in Calm     89% 0 in 0 W/m2
01:06 60.1 °F 56.8 °F 30.1 in Calm     89% 0 in 0 W/m2
01:11 60.1 °F 56.8 °F 30.1 in Calm     89% 0 in 0 W/m2
01:16 60.1 °F 56.8 °F 30.1 in Calm     89% 0 in 0 W/m2
01:21 60.1 °F 56.8 °F 30.1 in Calm     89% 0 in 0 W/m2
01:26 59.9 °F 56.7 °F 30.1 in Calm     89% 0 in 0 W/m2
01:31 59.9 °F 56.7 °F 30.1 in Calm     89% 0 in 0 W/m2
01:36 59.9 °F 56.7 °F 30.1 in Calm     89% 0 in 0 W/m2
01:41 59.9 °F 56.7 °F 30.1 in Calm     89% 0 in 0 W/m2
01:46 59.7 °F 56.5 °F 30.1 in Calm     89% 0 in 0 W/m2
01:51 59.7 °F 56.5 °F 30.1 in Calm     89% 0 in 0 W/m2
01:56 59.7 °F 56.5 °F 30.1 in WSW 6.9 mph 7 mph 89% 0 in 0 W/m2
02:01 59.9 °F 57 °F 30.1 in West 0.9 mph 3 mph 90% 0 in 0 W/m2
02:06 60.1 °F 57.2 °F 30.1 in Calm   1 mph 90% 0 in 0 W/m2
02:11 60.3 °F 57.4 °F 30.1 in ESE 2 mph 3 mph 90% 0 in 0 W/m2
02:16 60.3 °F 57.4 °F 30.1 in SW 0.9 mph 1 mph 90% 0 in 0 W/m2
02:21 60.3 °F 57.6 °F 30.1 in Calm     91% 0 in 0 W/m2
02:26 60.3 °F 57.6 °F 30.1 in Calm     91% 0 in 0 W/m2
02:31 60.3 °F 57.6 °F 30.1 in Calm     91% 0 in 0 W/m2
02:36 60.3 °F 57.6 °F 30.1 in Calm     91% 0 in 0 W/m2
02:41 60.3 °F 57.6 °F 30.1 in Calm     91% 0 in 0 W/m2
02:46 60.1 °F 57.4 °F 30.1 in Calm     91% 0 in 0 W/m2
02:51 59.9 °F 57.2 °F 30.1 in Calm     91% 0 in 0 W/m2
02:56 59.7 °F 57 °F 30.1 in Calm     91% 0 in 0 W/m2
03:01 59.5 °F 56.8 °F 30.1 in Calm     91% 0 in 0 W/m2
03:06 59.4 °F 56.7 °F 30.1 in Calm     91% 0 in 0 W/m2
03:11 59.2 °F 56.5 °F 30.1 in Calm     91% 0 in 0 W/m2
03:16 58.8 °F 56.1 °F 30.1 in Calm     91% 0 in 0 W/m2
03:21 58.6 °F 55.9 °F 30.1 in Calm     91% 0 in 0 W/m2
03:26 58.5 °F 55.8 °F 30.1 in Calm     91% 0 in 0 W/m2
03:31 58.3 °F 55.6 °F 30.1 in Calm     91% 0 in 0 W/m2
03:36 58.1 °F 55.8 °F 30.1 in Calm     92% 0 in 0 W/m2
03:41 57.7 °F 55.2 °F 30.1 in Calm     91% 0 in 0 W/m2
03:46 57.7 °F 55.4 °F 30.1 in Calm     92% 0 in 0 W/m2
03:51 57.6 °F 55.2 °F 30.1 in Calm     92% 0 in 0 W/m2
03:56 57.4 °F 55 °F 30.1 in Calm     92% 0 in 0 W/m2
04:01 57 °F 54.7 °F 30.1 in Calm     92% 0 in 0 W/m2
04:06 56.8 °F 54.5 °F 30.1 in Calm     92% 0 in 0 W/m2
04:11 56.8 °F 54.5 °F 30.1 in Calm     92% 0 in 0 W/m2
04:16 56.7 °F 54.3 °F 30.1 in Calm     92% 0 in 0 W/m2
04:21 56.5 °F 54.5 °F 30.1 in Calm     93% 0 in 0 W/m2
04:26 56.5 °F 54.5 °F 30.1 in Calm     93% 0 in 0 W/m2
04:31 56.1 °F 54.1 °F 30.1 in Calm     93% 0 in 0 W/m2
04:36 56.1 °F 54.1 °F 30.1 in Calm     93% 0 in 0 W/m2
04:41 55.9 °F 54 °F 30.1 in Calm     93% 0 in 0 W/m2
04:46 55.9 °F 54 °F 30.1 in Calm     93% 0 in 0 W/m2
04:51 55.8 °F 53.8 °F 30.1 in Calm     93% 0 in 0 W/m2
04:56 55.8 °F 53.8 °F 30.1 in Calm     93% 0 in 0 W/m2
05:01 55.6 °F 53.6 °F 30.1 in Calm     93% 0 in 0 W/m2
05:06 55.6 °F 54 °F 30.1 in Calm     94% 0 in 0 W/m2
05:11 55.4 °F 53.8 °F 30.1 in Calm     94% 0 in 0 W/m2
05:16 55.4 °F 53.8 °F 30.1 in Calm     94% 0 in 0 W/m2
05:21 55.2 °F 53.6 °F 30.1 in Calm     94% 0 in 0 W/m2
05:26 55.2 °F 53.6 °F 30.1 in Calm     94% 0 in 0 W/m2
05:31 55.2 °F 53.6 °F 30.1 in Calm     94% 0 in 0 W/m2
05:36 55.2 °F 53.6 °F 30.1 in Calm     94% 0 in 5 W/m2
05:41 55.2 °F 53.6 °F 30.1 in Calm     94% 0 in 7 W/m2
05:46 55.2 °F 53.6 °F 30.1 in Calm     94% 0 in 7 W/m2
05:51 55.2 °F 53.6 °F 30.1 in Calm     94% 0 in 11 W/m2
05:56 55.2 °F 53.6 °F 30.1 in Calm     94% 0 in 12 W/m2
06:01 55.2 °F 53.8 °F 30.1 in Calm     95% 0 in 14 W/m2
06:06 55 °F 53.6 °F 30.1 in Calm     95% 0 in 18 W/m2
06:11 55 °F 53.6 °F 30.2 in Calm     95% 0 in 18 W/m2
06:16 55 °F 53.6 °F 30.2 in Calm     95% 0 in 23 W/m2
06:21 55.2 °F 53.8 °F 30.2 in Calm     95% 0 in 25 W/m2
06:26 55.2 °F 53.8 °F 30.2 in Calm     95% 0 in 26 W/m2
06:31 55.4 °F 54 °F 30.2 in Calm     95% 0 in 28 W/m2
06:36 55.4 °F 54 °F 30.2 in Calm     95% 0 in 30 W/m2
06:41 55.6 °F 54.1 °F 30.2 in Calm     95% 0 in 32 W/m2
06:46 55.6 °F 54.1 °F 30.2 in Calm     95% 0 in 32 W/m2
06:51 55.8 °F 54.3 °F 30.2 in Calm     95% 0 in 33 W/m2
06:56 55.9 °F 54.9 °F 30.2 in Calm     96% 0 in 33 W/m2
07:01 56.1 °F 55 °F 30.2 in Calm     96% 0 in 37 W/m2
07:06 56.5 °F 55.4 °F 30.2 in Calm     96% 0 in 39 W/m2
07:11 56.7 °F 55.6 °F 30.2 in Calm     96% 0 in 40 W/m2
07:16 56.8 °F 55.8 °F 30.2 in NNE 2 mph 3 mph 96% 0 in 46 W/m2
07:21 57 °F 55.9 °F 30.2 in East 2 mph 2 mph 96% 0 in 121 W/m2
07:26 57.4 °F 56.3 °F 30.2 in ENE 2 mph 3 mph 96% 0 in 149 W/m2
07:31 57.7 °F 56.7 °F 30.2 in Calm   2 mph 96% 0 in 134 W/m2
07:36 58.3 °F 57.2 °F 30.2 in East 0.9 mph 3 mph 96% 0 in 142 W/m2
07:41 58.6 °F 57.6 °F 30.2 in East 0.9 mph 2 mph 96% 0 in 90 W/m2
07:46 58.6 °F 57.2 °F 30.2 in East 2.9 mph 3 mph 95% 0 in 58 W/m2
07:51 58.6 °F 56.8 °F 30.2 in Calm   1 mph 94% 0 in 114 W/m2
07:56 58.8 °F 57 °F 30.2 in NE 0.9 mph 2 mph 94% 0 in 69 W/m2
08:01 59.2 °F 57.4 °F 30.2 in NE 0.9 mph 1 mph 94% 0 in 253 W/m2
08:06 59.5 °F 57.6 °F 30.2 in ENE 2 mph 2 mph 93% 0 in 274 W/m2
08:11 60.4 °F 58.5 °F 30.2 in East 0.9 mph 2 mph 93% 0 in 297 W/m2
08:16 60.6 °F 57.7 °F 30.2 in East 0.9 mph 3 mph 90% 0 in 295 W/m2
08:21 61.2 °F 58.3 °F 30.2 in NNW 0.9 mph 4 mph 90% 0 in 179 W/m2
08:26 61.5 °F 58.3 °F 30.2 in Calm   2 mph 89% 0 in 109 W/m2
08:31 62.1 °F 58.1 °F 30.2 in NE 2 mph 4 mph 87% 0 in 114 W/m2
08:36 62.2 °F 58.3 °F 30.2 in ENE 2 mph 2 mph 87% 0 in 79 W/m2
08:41 62.6 °F 58.3 °F 30.2 in Calm     86% 0 in 93 W/m2
08:46 62.8 °F 57.9 °F 30.2 in NE 0.9 mph 4 mph 84% 0 in 116 W/m2
08:51 62.6 °F 57.7 °F 30.2 in ENE 0.9 mph 4 mph 84% 0 in 127 W/m2
08:56 62.6 °F 57.7 °F 30.2 in ENE 0.9 mph 4 mph 84% 0 in 125 W/m2
09:01 62.8 °F 57.9 °F 30.2 in NNW 0.9 mph 3 mph 84% 0 in 74 W/m2
09:06 63.1 °F 58.3 °F 30.2 in ESE 2 mph 3 mph 84% 0 in 72 W/m2
09:11 63.5 °F 58.3 °F 30.2 in NE 2.9 mph 3 mph 83% 0 in 130 W/m2
09:16 63.9 °F 59 °F 30.2 in NNE 2 mph 4 mph 84% 0 in 169 W/m2
09:21 64 °F 58.5 °F 30.2 in NE 4 mph 6 mph 82% 0 in 95 W/m2
09:26 64.6 °F 59.4 °F 30.2 in East 0.9 mph 3 mph 83% 0 in 62 W/m2
09:31 64.9 °F 59 °F 30.2 in NE 2.9 mph 4 mph 81% 0 in 56 W/m2
09:36 65.7 °F 59.7 °F 30.2 in East 2 mph 6 mph 81% 0 in 58 W/m2
09:41 66.2 °F 59.9 °F 30.1 in Calm   4 mph 80% 0 in 58 W/m2
09:46 66.7 °F 59.7 °F 30.1 in ESE 0.9 mph 6 mph 78% 0 in 58 W/m2
09:51 67.3 °F 59.9 °F 30.1 in East 2 mph 4 mph 77% 0 in 114 W/m2
09:56 67.5 °F 59.5 °F 30.1 in ENE 4 mph 4 mph 76% 0 in 308 W/m2
10:01 67.5 °F 59.5 °F 30.1 in ENE 2 mph 3 mph 76% 0 in 555 W/m2
10:06 67.6 °F 59.4 °F 30.1 in NNE 2 mph 4 mph 75% 0 in 594 W/m2
10:11 67.6 °F 59 °F 30.1 in Calm   3 mph 74% 0 in 547 W/m2
10:16 67.8 °F 58.8 °F 30.1 in North 2 mph 8 mph 73% 0 in 58 W/m2
10:21 68 °F 59 °F 30.1 in NNW 2 mph 3 mph 73% 0 in 130 W/m2
10:26 68.2 °F 59.2 °F 30.1 in NNW 0.9 mph 8 mph 73% 0 in 624 W/m2
10:31 68.5 °F 58.3 °F 30.1 in ENE 0.9 mph 8 mph 70% 0 in 652 W/m2
10:36 68.7 °F 59.4 °F 30.1 in ESE 2 mph 4 mph 72% 0 in 666 W/m2
10:41 69.1 °F 58.8 °F 30.1 in NE 2 mph 3 mph 70% 0 in 687 W/m2
10:46 69.3 °F 58.6 °F 30.1 in NE 2.9 mph 5 mph 69% 0 in 731 W/m2
10:51 69.4 °F 57.9 °F 30.1 in Calm   2 mph 67% 0 in 158 W/m2
10:56 69.6 °F 57.7 °F 30.1 in ESE 0.9 mph 8 mph 66% 0 in 740 W/m2
11:01 69.6 °F 57.7 °F 30.1 in ESE 2.9 mph 6 mph 66% 0 in 798 W/m2
11:06 70.3 °F 58.8 °F 30.1 in ENE 4.9 mph 8 mph 67% 0 in 793 W/m2
11:11 70.5 °F 57.7 °F 30.1 in South 0.9 mph 7 mph 64% 0 in 770 W/m2
11:16 70.5 °F 57.7 °F 30.1 in East 2 mph 2 mph 64% 0 in 754 W/m2
11:21 70.5 °F 55.9 °F 30.1 in NE 2 mph 7 mph 60% 0 in 167 W/m2
11:26 70.7 °F 56.1 °F 30.1 in East 2 mph 6 mph 60% 0 in 789 W/m2
11:31 71.2 °F 55.8 °F 30.1 in ESE 4 mph 8 mph 58% 0 in 204 W/m2
11:36 71.4 °F 55.9 °F 30.1 in NNE 0.9 mph 2 mph 58% 0 in 858 W/m2
11:41 71.8 °F 54.7 °F 30.1 in East 0.9 mph 4 mph 55% 0 in 837 W/m2
11:46 71.6 °F 54.5 °F 30.1 in NE 0.9 mph 6 mph 55% 0 in 916 W/m2
11:51 72 °F 54.9 °F 30.1 in ESE 4 mph 6 mph 55% 0 in 983 W/m2
11:56 72.3 °F 54.7 °F 30.1 in ESE 2.9 mph 4 mph 54% 0 in 914 W/m2
12:01 72.7 °F 54.5 °F 30.1 in NE 4.9 mph 7 mph 53% 0 in 209 W/m2
12:06 73 °F 54.3 °F 30.1 in East 2 mph 3 mph 52% 0 in 925 W/m2
12:11 73.2 °F 54.5 °F 30.1 in SE 6.9 mph 7 mph 52% 0 in 893 W/m2
12:16 73.2 °F 53.4 °F 30.1 in NNW 2.9 mph 4 mph 50% 0 in 884 W/m2
12:21 73.4 °F 53.1 °F 30.1 in Calm   4 mph 49% 0 in 881 W/m2
12:26 73.6 °F 53.8 °F 30.1 in WSW 4 mph 4 mph 50% 0 in 907 W/m2
12:31 73.2 °F 53.4 °F 30.1 in North 0.9 mph 8 mph 50% 0 in 918 W/m2
12:36 73.6 °F 54.3 °F 30.1 in ENE 2.9 mph 6 mph 51% 0 in 986 W/m2
12:41 73.8 °F 55 °F 30.1 in ENE 2.9 mph 4 mph 52% 0 in 940 W/m2
12:46 73.9 °F 53.6 °F 30.1 in ESE 2 mph 4 mph 49% 0 in 993 W/m2
12:51 74.1 °F 54.9 °F 30.1 in SE 2 mph 3 mph 51% 0 in 1005 W/m2
12:56 74.7 °F 55.4 °F 30.1 in NE 2.9 mph 6 mph 51% 0 in 951 W/m2
13:01 74.7 °F 54.3 °F 30.1 in North 2.9 mph 5 mph 49% 0 in 919 W/m2
13:06 74.1 °F 54.9 °F 30.1 in ESE 2 mph 2 mph 51% 0 in 200 W/m2
13:11 73.9 °F 53.6 °F 30.1 in ENE 4 mph 10 mph 49% 0 in 979 W/m2
13:16 73.9 °F 53.6 °F 30.1 in ENE 2.9 mph 4 mph 49% 0 in 914 W/m2
13:21 74.5 °F 55.8 °F 30.1 in ESE 2 mph 10 mph 52% 0 in 921 W/m2
13:26 74.8 °F 55 °F 30.1 in ENE 0.9 mph 6 mph 50% 0 in 953 W/m2
13:31 75.2 °F 54.1 °F 30.1 in NE 2.9 mph 10 mph 48% 0 in 930 W/m2
13:36 75.6 °F 54 °F 30.1 in ENE 2 mph 6 mph 47% 0 in 919 W/m2
13:41 75.6 °F 54.5 °F 30.1 in NE 0.9 mph 7 mph 48% 0 in 918 W/m2
13:46 75.7 °F 52.9 °F 30.1 in ENE 2 mph 6 mph 45% 0 in 928 W/m2
13:51 75.7 °F 54.1 °F 30.1 in ENE 2 mph 6 mph 47% 0 in 926 W/m2
13:56 75.9 °F 53.1 °F 30.1 in NE 0.9 mph 6 mph 45% 0 in 932 W/m2
14:01 75.9 °F 53.6 °F 30.1 in SSE 2 mph 4 mph 46% 0 in 932 W/m2
14:06 76.3 °F 55.2 °F 30.1 in NNE 0.9 mph 4 mph 48% 0 in 925 W/m2
14:11 76.5 °F 54.1 °F 30.1 in ENE 0.9 mph 4 mph 46% 0 in 928 W/m2
14:16 76.6 °F 54.3 °F 30.1 in East 2 mph 7 mph 46% 0 in 923 W/m2
14:21 76.6 °F 53.8 °F 30.1 in SE 2.9 mph 4 mph 45% 0 in 919 W/m2
14:27 76.5 °F 54.7 °F 30 in East 2.9 mph 7 mph 47% 0 in 916 W/m2
14:32 76.8 °F 53.2 °F 30 in NE 2 mph 6 mph 44% 0 in 919 W/m2
14:37 76.6 °F 54.9 °F 30 in ENE 2 mph 4 mph 47% 0 in 916 W/m2
14:42 76.6 °F 53.8 °F 30 in ESE 0.9 mph 5 mph 45% 0 in 918 W/m2
14:47 77.2 °F 52.9 °F 30 in SE 2.9 mph 7 mph 43% 0 in 914 W/m2
14:52 77.5 °F 54 °F 30 in NNW 2.9 mph 5 mph 44% 0 in 914 W/m2
14:57 77.5 °F 53.2 °F 30 in ESE 2 mph 6 mph 43% 0 in 905 W/m2
15:02 77.7 °F 54.7 °F 30 in SE 0.9 mph 8 mph 45% 0 in 902 W/m2
15:07 78.1 °F 53.8 °F 30 in ESE 2.9 mph 11 mph 43% 0 in 898 W/m2
15:12 78.3 °F 54.5 °F 30 in East 2 mph 7 mph 44% 0 in 889 W/m2
15:17 78.1 °F 55 °F 30 in ENE 2.9 mph 11 mph 45% 0 in 911 W/m2
15:22 78.1 °F 53.8 °F 30 in ESE 2 mph 5 mph 43% 0 in 895 W/m2
15:27 78.3 °F 54.5 °F 30 in SW 2 mph 3 mph 44% 0 in 902 W/m2
15:32 78.3 °F 54 °F 30 in WSW 2 mph 6 mph 43% 0 in 888 W/m2
15:37 78.3 °F 54 °F 30 in NE 2 mph 4 mph 43% 0 in 875 W/m2
15:42 78.4 °F 53.4 °F 30 in West 2 mph 4 mph 42% 0 in 854 W/m2
15:47 78.6 °F 54.9 °F 30 in SSE 4 mph 6 mph 44% 0 in 844 W/m2
15:52 79.2 °F 54.7 °F 30 in East 0.9 mph 4 mph 43% 0 in 837 W/m2
15:57 79 °F 54.5 °F 30 in ENE 2.9 mph 5 mph 43% 0 in 828 W/m2
16:02 78.8 °F 53.8 °F 30 in East 4 mph 4 mph 42% 0 in 817 W/m2
16:07 78.6 °F 55.6 °F 30 in SE 2.9 mph 4 mph 45% 0 in 805 W/m2
16:12 79 °F 54 °F 30 in East 0.9 mph 6 mph 42% 0 in 798 W/m2
16:17 79.2 °F 54.1 °F 30 in ENE 0.9 mph 4 mph 42% 0 in 789 W/m2
16:22 79.5 °F 52.3 °F 30 in SE 2.9 mph 6 mph 39% 0 in 779 W/m2
16:27 79.7 °F 52.5 °F 30 in Calm   3 mph 39% 0 in 772 W/m2
16:32 79.9 °F 52 °F 30 in South 2 mph 6 mph 38% 0 in 751 W/m2
16:37 80.1 °F 54.3 °F 30 in NE 0.9 mph 6 mph 41% 0 in 740 W/m2
16:42 80.2 °F 54.3 °F 30 in East 2 mph 9 mph 41% 0 in 733 W/m2
16:47 80.2 °F 53.1 °F 30 in NNW 4.9 mph 5 mph 39% 0 in 719 W/m2
16:52 80.2 °F 53.8 °F 30 in NE 2.9 mph 6 mph 40% 0 in 707 W/m2
16:57 80.4 °F 54.5 °F 30 in ESE 2 mph 7 mph 41% 0 in 700 W/m2
17:02 80.4 °F 53.2 °F 30 in SE 4.9 mph 8 mph 39% 0 in 691 W/m2
17:07 80.4 °F 54 °F 30 in East 2.9 mph 4 mph 40% 0 in 684 W/m2
17:12 80.4 °F 54 °F 30 in NNE 2 mph 9 mph 40% 0 in 682 W/m2
17:17 80.2 °F 54.3 °F 30 in SE 4.9 mph 5 mph 41% 0 in 680 W/m2
17:22 80.4 °F 54 °F 30 in SE 2 mph 3 mph 40% 0 in 751 W/m2
17:27 80.8 °F 54.9 °F 30 in ESE 2.9 mph 6 mph 41% 0 in 828 W/m2
17:32 81 °F 53.6 °F 30 in ESE 2.9 mph 7 mph 39% 0 in 821 W/m2
17:37 81.3 °F 54 °F 30 in East 2 mph 7 mph 39% 0 in 359 W/m2
17:42 80.8 °F 52.9 °F 30 in ENE 0.9 mph 4 mph 38% 0 in 360 W/m2
17:47 80.4 °F 54.5 °F 30 in Calm   6 mph 41% 0 in 355 W/m2
17:52 80.2 °F 54.3 °F 30 in ENE 0.9 mph 3 mph 41% 0 in 515 W/m2
17:57 80.2 °F 54.3 °F 30 in WSW 0.9 mph 6 mph 41% 0 in 339 W/m2
18:02 80.1 °F 54.3 °F 30 in ESE 4 mph 4 mph 41% 0 in 478 W/m2
18:07 80.4 °F 55.2 °F 30 in ENE 2 mph 5 mph 42% 0 in 478 W/m2
18:12 80.8 °F 54.9 °F 30 in NE 2.9 mph 9 mph 41% 0 in 715 W/m2
18:17 81.3 °F 55.4 °F 30 in ESE 2 mph 7 mph 41% 0 in 682 W/m2
18:22 81.5 °F 56.1 °F 30 in ESE 0.9 mph 9 mph 42% 0 in 566 W/m2
18:27 81.7 °F 55.8 °F 30 in ENE 2 mph 7 mph 41% 0 in 512 W/m2
18:32 81.3 °F 55.4 °F 30 in ENE 2 mph 3 mph 41% 0 in 455 W/m2
18:37 80.6 °F 54.7 °F 30 in Calm   7 mph 41% 0 in 390 W/m2
18:42 80.4 °F 55.2 °F 30 in Calm   2 mph 42% 0 in 360 W/m2
18:47 80.2 °F 54.3 °F 30 in East 2.9 mph 4 mph 41% 0 in 336 W/m2
18:52 79.9 °F 54.1 °F 30 in NE 4 mph 5 mph 41% 0 in 227 W/m2
18:57 79.5 °F 53.1 °F 30 in North 2 mph 2 mph 40% 0 in 76 W/m2
19:02 79.5 °F 54.5 °F 30 in East 0.9 mph 6 mph 42% 0 in 74 W/m2
19:07 79.9 °F 54.7 °F 30 in SE 2 mph 4 mph 42% 0 in 83 W/m2
19:12 80.1 °F 54.9 °F 30 in ESE 2 mph 4 mph 42% 0 in 77 W/m2
19:17 80.1 °F 54.3 °F 30 in ENE 0.9 mph 3 mph 41% 0 in 72 W/m2
19:23 79.9 °F 54.1 °F 30 in East 2 mph 4 mph 41% 0 in 69 W/m2
19:28 79.9 °F 54.7 °F 30 in ESE 0.9 mph 3 mph 42% 0 in 63 W/m2
19:33 79.9 °F 54.7 °F 30 in ESE 0.9 mph 2 mph 42% 0 in 62 W/m2
19:38 79.9 °F 54.7 °F 30 in SE 2.9 mph 3 mph 42% 0 in 60 W/m2
19:43 79.5 °F 54.5 °F 30 in ENE 2.9 mph 4 mph 42% 0 in 62 W/m2
19:48 79.3 °F 55.6 °F 30 in SE 0.9 mph 2 mph 44% 0 in 62 W/m2
19:53 79.3 °F 54.9 °F 30 in Calm   5 mph 43% 0 in 62 W/m2
19:58 79.3 °F 54.9 °F 30 in NE 0.9 mph 3 mph 43% 0 in 98 W/m2
20:03 79.3 °F 54.3 °F 30 in ENE 0.9 mph 1 mph 42% 0 in 176 W/m2
20:08 79.3 °F 56.8 °F 30 in Calm     46% 0 in 67 W/m2
20:13 79.3 °F 55.6 °F 30 in South 2 mph 6 mph 44% 0 in 63 W/m2
20:18 79.2 °F 54.7 °F 30 in SSW 2 mph 4 mph 43% 0 in 56 W/m2
20:23 78.8 °F 55.6 °F 30 in ENE 2 mph 2 mph 45% 0 in 62 W/m2
20:28 78.4 °F 55.4 °F 30 in ESE 2 mph 3 mph 45% 0 in 46 W/m2
20:33 77.9 °F 56.7 °F 30 in SE 0.9 mph 2 mph 48% 0 in 46 W/m2
20:38 77.5 °F 56.3 °F 30 in Calm   2 mph 48% 0 in 53 W/m2
20:43 77 °F 57 °F 30 in Calm     50% 0 in 63 W/m2
20:48 76.6 °F 57.2 °F 30 in Calm   2 mph 51% 0 in 60 W/m2
20:53 76.3 °F 55.8 °F 30 in Calm   2 mph 49% 0 in 79 W/m2
20:58 75.9 °F 57 °F 30 in Calm   1 mph 52% 0 in 72 W/m2
21:03 75.9 °F 57 °F 30 in Calm   1 mph 52% 0 in 62 W/m2
21:08 75.9 °F 55.9 °F 30 in Calm   1 mph 50% 0 in 47 W/m2
21:13 75.7 °F 56.3 °F 30 in NW 0.9 mph 1 mph 51% 0 in 37 W/m2
21:18 75.6 °F 56.7 °F 30 in Calm   2 mph 52% 0 in 19 W/m2
21:23 74.8 °F 55 °F 30 in WSW 2.9 mph 3 mph 50% 0 in 14 W/m2
21:28 74.1 °F 55.9 °F 30 in Calm   1 mph 53% 0 in 12 W/m2
21:33 73.8 °F 56.1 °F 30 in WSW 0.9 mph 2 mph 54% 0 in 9 W/m2
21:38 73 °F 56.5 °F 30 in WSW 0.9 mph 2 mph 56% 0 in 7 W/m2
21:43 72.3 °F 56.7 °F 30 in Calm   1 mph 58% 0 in 5 W/m2
21:48 71.8 °F 55.8 °F 30 in WSW 2 mph 2 mph 57% 0 in 0 W/m2
21:53 71.1 °F 55.9 °F 30 in WSW 0.9 mph 2 mph 59% 0 in 0 W/m2
21:58 70.5 °F 55.9 °F 30 in Calm   2 mph 60% 0 in 0 W/m2
22:03 70 °F 55.9 °F 30 in Calm   2 mph 61% 0 in 0 W/m2
22:08 69.4 °F 55.4 °F 30 in WSW 0.9 mph 1 mph 61% 0 in 0 W/m2
22:13 69.1 °F 55.9 °F 30 in WSW 0.9 mph 2 mph 63% 0 in 0 W/m2
22:18 68.5 °F 55.9 °F 30 in WSW 0.9 mph 2 mph 64% 0 in 0 W/m2
22:23 68.4 °F 56.1 °F 30 in Calm   1 mph 65% 0 in 0 W/m2
22:28 67.8 °F 55.6 °F 30 in Calm   1 mph 65% 0 in 0 W/m2
22:33 67.6 °F 55.9 °F 30 in Calm     66% 0 in 0 W/m2
22:38 67.3 °F 55 °F 30 in WSW 0.9 mph 2 mph 65% 0 in 0 W/m2
22:43 67.1 °F 55.8 °F 30 in Calm   1 mph 67% 0 in 0 W/m2
22:48 66.7 °F 55.4 °F 30 in WSW 0.9 mph 2 mph 67% 0 in 0 W/m2
22:53 66.6 °F 55.6 °F 30 in Calm     68% 0 in 0 W/m2
22:58 66.4 °F 55.6 °F 30 in Calm     68% 0 in 0 W/m2
23:03 66.2 °F 55.8 °F 30 in Calm     69% 0 in 0 W/m2
23:08 65.8 °F 55.8 °F 30 in Calm     70% 0 in 0 W/m2
23:13 65.7 °F 55.6 °F 30 in Calm     70% 0 in 0 W/m2
23:18 65.5 °F 55.4 °F 30 in Calm     70% 0 in 0 W/m2
23:23 65.1 °F 55 °F 30 in Calm     70% 0 in 0 W/m2
23:28 65.1 °F 55 °F 30 in Calm     70% 0 in 0 W/m2
23:33 65.1 °F 55.4 °F 30 in Calm     71% 0 in 0 W/m2
23:38 65.1 °F 55.4 °F 30 in Calm     71% 0 in 0 W/m2
23:43 65.1 °F 55.4 °F 30 in Calm     71% 0 in 0 W/m2
23:48 65.1 °F 55.9 °F 30 in Calm     72% 0 in 0 W/m2
23:53 65.3 °F 56.1 °F 30 in WSW 0.9 mph 1 mph 72% 0 in 0 W/m2
23:58 65.5 °F 55.8 °F 30 in Calm     71% 0 in 0 W/m2
Juneau County Weather
Compliments of Weather Underground - 4 mb